createdAt,value
2023-05-22T00:01:04.829Z,13.94
2023-05-22T00:03:31.400Z,14.08
2023-05-22T00:05:58.854Z,14.04
2023-05-22T00:08:29.816Z,14.07
2023-05-22T00:10:56.659Z,13.91
2023-05-22T00:13:23.217Z,13.87
2023-05-22T00:15:49.842Z,13.82
2023-05-22T00:18:16.595Z,13.65
2023-05-22T00:20:46.303Z,13.70
2023-05-22T00:23:15.543Z,13.61
2023-05-22T00:25:42.430Z,13.37
2023-05-22T00:28:09.047Z,13.23
2023-05-22T00:30:37.325Z,13.39
2023-05-22T00:33:04.195Z,13.48
2023-05-22T00:35:30.745Z,13.46
2023-05-22T00:37:57.586Z,13.35
2023-05-22T00:40:24.131Z,13.25
2023-05-22T00:42:50.606Z,13.27
2023-05-22T00:45:17.231Z,13.23
2023-05-22T00:47:44.841Z,13.36
2023-05-22T00:50:12.345Z,13.47
2023-05-22T00:52:42.662Z,13.41
2023-05-22T00:55:10.791Z,13.50
2023-05-22T00:57:42.276Z,13.48
2023-05-22T01:00:13.488Z,13.56
2023-05-22T01:02:42.988Z,13.37
2023-05-22T01:05:13.186Z,13.44
2023-05-22T01:07:40.280Z,13.20
2023-05-22T01:10:07.630Z,13.23
2023-05-22T01:12:52.895Z,13.11
2023-05-22T01:15:46.574Z,13.07
2023-05-22T01:18:25.219Z,13.10
2023-05-22T01:21:06.229Z,12.89
2023-05-22T01:23:57.540Z,13.22
2023-05-22T01:26:36.156Z,13.18
2023-05-22T01:29:15.351Z,12.69
2023-05-22T01:31:43.694Z,12.74
2023-05-22T01:34:14.633Z,12.54
2023-05-22T01:36:42.639Z,12.19
2023-05-22T01:39:09.626Z,12.31
2023-05-22T01:41:36.242Z,12.14
2023-05-22T01:44:03.691Z,12.18
2023-05-22T01:46:31.378Z,12.08
2023-05-22T01:48:59.087Z,12.31
2023-05-22T01:51:39.653Z,12.43
2023-05-22T01:54:26.950Z,12.54
2023-05-22T01:57:00.053Z,12.53
2023-05-22T01:59:36.233Z,12.65
2023-05-22T02:02:06.339Z,12.60
2023-05-22T02:04:36.736Z,12.63
2023-05-22T02:07:03.981Z,12.42
2023-05-22T02:09:31.177Z,12.43
2023-05-22T02:11:59.378Z,12.47
2023-05-22T02:14:29.336Z,12.60
2023-05-22T02:16:56.726Z,12.44
2023-05-22T02:19:24.156Z,12.61
2023-05-22T02:21:50.759Z,12.53
2023-05-22T02:24:17.298Z,12.51
2023-05-22T02:26:44.295Z,12.47
2023-05-22T02:29:10.790Z,12.47
2023-05-22T02:31:37.312Z,12.24
2023-05-22T02:34:05.377Z,12.15
2023-05-22T02:36:32.324Z,12.32
2023-05-22T02:38:59.846Z,12.01
2023-05-22T02:41:26.467Z,12.26
2023-05-22T02:43:53.158Z,11.94
2023-05-22T02:46:19.771Z,12.15
2023-05-22T02:48:46.308Z,12.00
2023-05-22T02:51:12.765Z,11.89
2023-05-22T02:53:41.188Z,11.96
2023-05-22T02:56:08.737Z,12.16
2023-05-22T02:58:35.307Z,12.05
2023-05-22T03:01:03.424Z,12.01
2023-05-22T03:03:31.389Z,12.19
2023-05-22T03:05:58.485Z,12.09
2023-05-22T03:08:28.242Z,12.01
2023-05-22T03:10:56.573Z,11.92
2023-05-22T03:13:23.406Z,12.00
2023-05-22T03:15:49.944Z,12.13
2023-05-22T03:18:18.042Z,11.85
2023-05-22T03:20:45.366Z,11.87
2023-05-22T03:23:13.125Z,11.87
2023-05-22T03:25:39.760Z,11.91
2023-05-22T03:28:06.416Z,11.91
2023-05-22T03:30:37.314Z,12.02
2023-05-22T03:33:19.491Z,12.02
2023-05-22T03:35:46.127Z,12.02
2023-05-22T03:38:12.702Z,11.70
2023-05-22T03:40:40.065Z,11.89
2023-05-22T03:43:07.885Z,11.88
2023-05-22T03:45:34.475Z,11.68
2023-05-22T03:48:02.620Z,11.99
2023-05-22T03:50:29.454Z,11.91
2023-05-22T03:52:55.953Z,11.89
2023-05-22T03:55:22.410Z,11.89
2023-05-22T03:57:48.908Z,11.88
2023-05-22T04:00:19.524Z,11.97
2023-05-22T04:02:46.749Z,11.94
2023-05-22T04:05:13.499Z,11.94
2023-05-22T04:07:40.066Z,11.95
2023-05-22T04:10:07.080Z,11.97
2023-05-22T04:12:33.856Z,11.97
2023-05-22T04:15:00.422Z,11.97
2023-05-22T04:17:32.470Z,12.01
2023-05-22T04:20:00.313Z,11.97
2023-05-22T04:22:27.508Z,11.98
2023-05-22T04:24:53.996Z,12.06
2023-05-22T04:27:22.506Z,11.99
2023-05-22T04:29:50.365Z,11.98
2023-05-22T04:32:21.788Z,12.05
2023-05-22T04:34:51.036Z,11.84
2023-05-22T04:37:20.046Z,11.76
2023-05-22T04:39:47.090Z,11.74
2023-05-22T04:42:14.488Z,11.80
2023-05-22T04:44:41.896Z,11.84
2023-05-22T04:47:12.060Z,11.91
2023-05-22T04:49:39.189Z,12.03
2023-05-22T04:52:07.128Z,11.95
2023-05-22T04:54:34.464Z,12.51
2023-05-22T04:57:03.087Z,12.78
2023-05-22T04:59:29.608Z,13.04
2023-05-22T05:01:56.093Z,12.65
2023-05-22T05:04:24.498Z,13.34
2023-05-22T05:06:52.785Z,13.53
2023-05-22T05:09:19.278Z,13.72
2023-05-22T05:11:45.784Z,13.88
2023-05-22T05:14:12.378Z,14.09
2023-05-22T05:16:38.916Z,14.12
2023-05-22T05:19:06.616Z,14.08
2023-05-22T05:21:33.350Z,14.07
2023-05-22T05:24:00.942Z,14.15
2023-05-22T05:26:27.617Z,14.32
2023-05-22T05:28:56.451Z,14.58
2023-05-22T05:31:23.373Z,14.88
2023-05-22T05:34:06.229Z,15.24
2023-05-22T05:36:52.429Z,15.69
2023-05-22T05:39:20.560Z,16.03
2023-05-22T05:41:47.768Z,16.37
2023-05-22T05:44:15.657Z,16.61
2023-05-22T05:46:42.448Z,16.85
2023-05-22T05:49:10.271Z,17.09
2023-05-22T05:51:38.660Z,17.27
2023-05-22T05:54:06.138Z,17.44
2023-05-22T05:56:32.942Z,17.70
2023-05-22T05:59:00.148Z,17.95
2023-05-22T06:01:35.113Z,18.18
2023-05-22T06:04:03.419Z,17.78
2023-05-22T06:06:39.276Z,17.84
2023-05-22T06:09:24.655Z,17.86
2023-05-22T06:12:06.907Z,17.82
2023-05-22T06:14:33.892Z,18.53
2023-05-22T06:17:00.436Z,18.81
2023-05-22T06:19:27.172Z,19.14
2023-05-22T06:21:55.240Z,19.33
2023-05-22T06:24:22.177Z,19.50
2023-05-22T06:26:49.678Z,19.60
2023-05-22T06:29:16.163Z,19.77
2023-05-22T06:31:43.256Z,19.89
2023-05-22T06:34:10.856Z,19.85
2023-05-22T06:36:37.403Z,19.95
2023-05-22T06:39:04.845Z,20.03
2023-05-22T06:41:58.247Z,20.20
2023-05-22T06:44:25.708Z,20.35
2023-05-22T06:46:55.400Z,20.46
2023-05-22T06:49:24.559Z,20.62
2023-05-22T06:51:53.972Z,20.77
2023-05-22T06:54:21.428Z,20.98
2023-05-22T06:56:51.141Z,21.06
2023-05-22T06:59:18.102Z,21.04
2023-05-22T07:02:03.141Z,21.07
2023-05-22T07:04:53.550Z,21.14
2023-05-22T07:07:31.128Z,21.33
2023-05-22T07:09:57.707Z,21.61
2023-05-22T07:12:26.201Z,21.96
2023-05-22T07:14:54.490Z,22.27
2023-05-22T07:17:23.495Z,22.53
2023-05-22T07:19:50.902Z,22.73
2023-05-22T07:22:17.826Z,22.84
2023-05-22T07:24:47.205Z,22.81
2023-05-22T07:27:15.756Z,22.96
2023-05-22T07:29:42.382Z,23.12
2023-05-22T07:32:09.194Z,23.36
2023-05-22T07:34:36.478Z,23.62
2023-05-22T07:37:08.505Z,23.94
2023-05-22T07:39:35.482Z,24.11
2023-05-22T07:42:02.950Z,24.30
2023-05-22T07:44:31.707Z,24.41
2023-05-22T07:46:59.421Z,24.67
2023-05-22T07:49:28.233Z,24.77
2023-05-22T07:51:54.794Z,24.99
2023-05-22T07:54:24.131Z,25.15
2023-05-22T07:56:52.510Z,25.31
2023-05-22T07:59:21.588Z,25.48
2023-05-22T08:01:48.069Z,25.61
2023-05-22T08:04:14.796Z,25.57
2023-05-22T08:06:41.613Z,25.78
2023-05-22T08:09:08.060Z,25.77
2023-05-22T08:11:34.976Z,25.77
2023-05-22T08:14:01.654Z,25.89
2023-05-22T08:16:28.153Z,26.16
2023-05-22T08:18:54.695Z,26.15
2023-05-22T08:21:21.266Z,26.38
2023-05-22T08:23:47.729Z,25.87
2023-05-22T08:26:15.250Z,25.82
2023-05-22T08:28:44.712Z,25.63
2023-05-22T08:31:11.912Z,25.76
2023-05-22T08:33:38.592Z,25.75
2023-05-22T08:36:05.891Z,25.91
2023-05-22T08:38:32.606Z,26.17
2023-05-22T08:40:59.203Z,26.35
2023-05-22T08:43:25.782Z,26.48
2023-05-22T08:45:57.783Z,26.52
2023-05-22T08:48:29.207Z,26.46
2023-05-22T08:51:02.416Z,26.57
2023-05-22T08:53:31.164Z,26.71
2023-05-22T08:55:57.778Z,26.84
2023-05-22T08:58:24.600Z,27.33
2023-05-22T09:00:52.495Z,27.56
2023-05-22T09:03:21.405Z,27.45
2023-05-22T09:05:49.341Z,27.37
2023-05-22T09:08:20.771Z,27.55
2023-05-22T09:10:47.868Z,27.82
2023-05-22T09:13:24.361Z,27.96
2023-05-22T09:15:50.901Z,28.13
2023-05-22T09:18:17.349Z,28.28
2023-05-22T09:20:43.849Z,28.47
2023-05-22T09:23:21.557Z,28.43
2023-05-22T09:25:48.075Z,28.41
2023-05-22T09:28:14.564Z,28.45
2023-05-22T09:30:42.459Z,28.51
2023-05-22T09:33:12.844Z,28.49
2023-05-22T09:35:39.722Z,28.59
2023-05-22T09:38:06.466Z,28.46
2023-05-22T09:40:35.036Z,28.19
2023-05-22T09:43:06.479Z,28.11
2023-05-22T09:45:35.090Z,28.37
2023-05-22T09:48:05.670Z,28.56
2023-05-22T09:50:32.648Z,28.58
2023-05-22T09:53:04.017Z,28.38
2023-05-22T09:55:34.968Z,28.41
2023-05-22T09:58:04.837Z,27.82
2023-05-22T10:00:34.213Z,27.94
2023-05-22T10:03:12.500Z,27.49
2023-05-22T10:05:43.592Z,26.84
2023-05-22T10:08:24.369Z,27.24
2023-05-22T10:10:52.826Z,27.76
2023-05-22T10:13:20.786Z,28.14
2023-05-22T10:15:49.064Z,28.38
2023-05-22T10:18:16.933Z,28.31
2023-05-22T10:20:44.585Z,28.10
2023-05-22T10:23:12.252Z,27.92
2023-05-22T10:25:39.053Z,28.01
2023-05-22T10:28:06.916Z,27.66
2023-05-22T10:30:43.249Z,27.02
2023-05-22T10:33:35.279Z,26.60
2023-05-22T10:36:05.164Z,26.64
2023-05-22T10:38:54.129Z,26.11
2023-05-22T10:41:22.376Z,25.31
2023-05-22T10:43:49.803Z,25.32
2023-05-22T10:46:17.005Z,25.43
2023-05-22T10:48:48.493Z,25.56
2023-05-22T10:51:20.575Z,25.67
2023-05-22T10:53:53.256Z,25.49
2023-05-22T10:56:20.412Z,24.77
2023-05-22T10:58:59.155Z,24.74
2023-05-22T11:01:26.432Z,24.67
2023-05-22T11:04:01.156Z,24.45
2023-05-22T11:06:41.375Z,24.32
2023-05-22T11:09:20.117Z,24.66
2023-05-22T11:11:47.377Z,24.73
2023-05-22T11:14:19.588Z,24.87
2023-05-22T11:16:46.147Z,25.04
2023-05-22T11:19:23.486Z,24.90
2023-05-22T11:21:50.791Z,25.27
2023-05-22T11:24:18.080Z,25.27
2023-05-22T11:26:44.712Z,24.98
2023-05-22T11:29:11.206Z,25.05
2023-05-22T11:31:38.585Z,25.00
2023-05-22T11:34:05.189Z,25.56
2023-05-22T11:36:32.089Z,26.07
2023-05-22T11:39:00.009Z,26.37
2023-05-22T11:41:33.178Z,26.38
2023-05-22T11:44:01.474Z,25.93
2023-05-22T11:46:28.069Z,25.36
2023-05-22T11:48:54.801Z,25.21
2023-05-22T11:51:21.756Z,25.18
2023-05-22T11:53:48.340Z,25.62
2023-05-22T11:56:14.844Z,25.89
2023-05-22T11:58:41.488Z,26.07
2023-05-22T12:01:07.895Z,26.46
2023-05-22T12:03:34.455Z,26.54
2023-05-22T12:06:01.856Z,26.77
2023-05-22T12:08:28.682Z,26.11
2023-05-22T12:10:55.180Z,25.91
2023-05-22T12:13:29.128Z,25.63
2023-05-22T12:15:59.995Z,25.54
2023-05-22T12:18:27.558Z,26.08
2023-05-22T12:20:56.974Z,26.25
2023-05-22T12:23:28.319Z,26.35
2023-05-22T12:25:58.585Z,26.63
2023-05-22T12:28:25.653Z,26.54
2023-05-22T12:30:53.610Z,25.91
2023-05-22T12:33:20.603Z,25.50
2023-05-22T12:35:50.882Z,25.32
2023-05-22T12:38:20.909Z,25.15
2023-05-22T12:40:47.374Z,25.38
2023-05-22T12:43:13.901Z,25.43
2023-05-22T12:45:43.078Z,25.68
2023-05-22T12:48:09.785Z,26.21
2023-05-22T12:50:36.313Z,25.88
2023-05-22T12:53:02.904Z,26.11
2023-05-22T12:55:29.345Z,25.39
2023-05-22T12:57:55.775Z,25.52
2023-05-22T13:00:25.358Z,26.04
2023-05-22T13:02:52.062Z,26.42
2023-05-22T13:05:18.786Z,26.82
2023-05-22T13:07:45.369Z,26.10
2023-05-22T13:10:11.929Z,26.40
2023-05-22T13:12:38.468Z,26.52
2023-05-22T13:15:05.515Z,26.51
2023-05-22T13:17:32.358Z,26.57
2023-05-22T13:19:58.896Z,26.03
2023-05-22T13:22:25.973Z,26.10
2023-05-22T13:24:52.475Z,26.04
2023-05-22T13:27:19.053Z,26.15
2023-05-22T13:29:45.585Z,26.30
2023-05-22T13:32:13.581Z,26.56
2023-05-22T13:34:43.223Z,26.96
2023-05-22T13:37:10.028Z,27.25
2023-05-22T13:39:36.893Z,27.36
2023-05-22T13:42:03.687Z,27.54
2023-05-22T13:44:30.121Z,27.64
2023-05-22T13:46:56.616Z,27.71
2023-05-22T13:49:23.140Z,27.21
2023-05-22T13:51:49.577Z,26.54
2023-05-22T13:54:16.121Z,26.17
2023-05-22T13:56:42.597Z,26.07
2023-05-22T13:59:09.477Z,26.29
2023-05-22T14:01:36.188Z,26.05
2023-05-22T14:04:03.236Z,26.09
2023-05-22T14:06:29.722Z,26.17
2023-05-22T14:08:56.228Z,26.36
2023-05-22T14:11:23.068Z,26.49
2023-05-22T14:13:49.966Z,26.51
2023-05-22T14:16:16.537Z,26.44
2023-05-22T14:18:43.001Z,26.21
2023-05-22T14:21:09.442Z,25.81
2023-05-22T14:23:35.918Z,25.26
2023-05-22T14:26:02.383Z,24.86
2023-05-22T14:28:28.865Z,24.47
2023-05-22T14:30:55.920Z,23.66
2023-05-22T14:33:22.426Z,23.19
2023-05-22T14:35:51.037Z,23.03
2023-05-22T14:38:17.489Z,22.74
2023-05-22T14:40:43.977Z,22.65
2023-05-22T14:43:10.429Z,22.76
2023-05-22T14:45:36.904Z,22.66
2023-05-22T14:48:03.856Z,22.65
2023-05-22T14:50:30.342Z,22.04
2023-05-22T14:52:56.856Z,21.74
2023-05-22T14:55:27.535Z,20.90
2023-05-22T14:57:54.420Z,20.21
2023-05-22T15:00:20.998Z,19.71
2023-05-22T15:02:47.610Z,19.64
2023-05-22T15:05:14.150Z,19.41
2023-05-22T15:07:44.627Z,18.51
2023-05-22T15:10:13.137Z,18.69
2023-05-22T15:12:39.694Z,18.84
2023-05-22T15:15:06.704Z,19.16
2023-05-22T15:17:33.269Z,18.86
2023-05-22T15:19:59.729Z,18.80
2023-05-22T15:22:26.245Z,18.56
2023-05-22T15:25:06.947Z,18.40
2023-05-22T15:27:35.030Z,18.33
2023-05-22T15:30:02.684Z,18.40
2023-05-22T15:32:30.606Z,18.38
2023-05-22T15:34:57.368Z,18.53
2023-05-22T15:37:23.901Z,18.67
2023-05-22T15:39:50.454Z,18.85
2023-05-22T15:42:16.957Z,18.93
2023-05-22T15:44:43.550Z,18.95
2023-05-22T15:47:09.992Z,19.06
2023-05-22T15:49:36.557Z,19.27
2023-05-22T15:52:03.053Z,19.32
2023-05-22T15:54:29.504Z,19.47
2023-05-22T15:56:56.109Z,19.50
2023-05-22T15:59:22.554Z,19.49
2023-05-22T16:01:49.203Z,19.75
2023-05-22T16:04:15.839Z,20.00
2023-05-22T16:06:42.370Z,20.22
2023-05-22T16:09:09.933Z,20.30
2023-05-22T16:11:37.785Z,20.50
2023-05-22T16:14:04.763Z,20.44
2023-05-22T16:16:32.340Z,20.77
2023-05-22T16:18:58.907Z,20.60
2023-05-22T16:21:25.398Z,20.60
2023-05-22T16:23:52.222Z,20.65
2023-05-22T16:26:18.680Z,20.81
2023-05-22T16:28:45.305Z,20.93
2023-05-22T16:31:12.957Z,21.04
2023-05-22T16:33:39.537Z,21.25
2023-05-22T16:36:06.340Z,21.40
2023-05-22T16:38:32.800Z,21.45
2023-05-22T16:40:59.357Z,21.39
2023-05-22T16:43:26.089Z,21.60
2023-05-22T16:45:52.572Z,21.75
2023-05-22T16:48:19.186Z,21.94
2023-05-22T16:50:46.754Z,22.09
2023-05-22T16:53:14.019Z,22.28
2023-05-22T16:55:40.843Z,22.33
2023-05-22T16:58:08.989Z,22.47
2023-05-22T17:00:36.709Z,22.50
2023-05-22T17:03:03.516Z,22.66
2023-05-22T17:05:30.271Z,22.63
2023-05-22T17:07:56.806Z,22.63
2023-05-22T17:10:23.692Z,22.63
2023-05-22T17:12:50.320Z,22.05
2023-05-22T17:15:16.796Z,21.87
2023-05-22T17:17:43.265Z,21.64
2023-05-22T17:20:10.261Z,21.57
2023-05-22T17:22:38.249Z,21.65
2023-05-22T17:25:06.133Z,21.71
2023-05-22T17:27:36.016Z,21.59
2023-05-22T17:30:03.365Z,21.50
2023-05-22T17:32:29.917Z,21.55
2023-05-22T17:34:56.504Z,21.64
2023-05-22T17:37:22.969Z,21.43
2023-05-22T17:39:49.445Z,21.48
2023-05-22T17:42:15.911Z,21.64
2023-05-22T17:44:42.402Z,21.44
2023-05-22T17:47:08.980Z,21.46
2023-05-22T17:49:37.105Z,21.48
2023-05-22T17:52:03.584Z,21.31
2023-05-22T17:54:34.567Z,21.20
2023-05-22T17:57:03.856Z,21.30
2023-05-22T17:59:33.373Z,21.40
2023-05-22T18:01:59.924Z,21.47
2023-05-22T18:04:26.502Z,21.58
2023-05-22T18:06:53.001Z,21.60
2023-05-22T18:09:19.516Z,21.39
2023-05-22T18:11:46.126Z,21.40
2023-05-22T18:14:12.647Z,21.44
2023-05-22T18:16:39.229Z,21.43
2023-05-22T18:19:05.842Z,21.47
2023-05-22T18:21:32.341Z,21.49
2023-05-22T18:23:58.985Z,21.53
2023-05-22T18:26:26.704Z,21.56
2023-05-22T18:28:53.181Z,21.73
2023-05-22T18:31:19.871Z,21.31
2023-05-22T18:33:46.642Z,20.77
2023-05-22T18:36:13.381Z,20.57
2023-05-22T18:38:39.858Z,20.55
2023-05-22T18:41:06.718Z,20.45
2023-05-22T18:43:33.393Z,20.54
2023-05-22T18:45:59.867Z,20.60
2023-05-22T18:48:27.297Z,20.14
2023-05-22T18:50:56.657Z,20.10
2023-05-22T18:53:25.045Z,19.80
2023-05-22T18:55:52.319Z,19.91
2023-05-22T18:58:18.889Z,19.50
2023-05-22T19:00:45.685Z,19.79
2023-05-22T19:03:12.673Z,19.71
2023-05-22T19:05:39.743Z,19.66
2023-05-22T19:08:06.395Z,19.64
2023-05-22T19:10:33.103Z,19.65
2023-05-22T19:12:59.716Z,19.71
2023-05-22T19:15:26.338Z,19.65
2023-05-22T19:17:53.009Z,19.44
2023-05-22T19:20:19.586Z,19.42
2023-05-22T19:22:46.289Z,19.56
2023-05-22T19:25:12.876Z,19.64
2023-05-22T19:27:39.626Z,19.69
2023-05-22T19:30:07.123Z,19.58
2023-05-22T19:32:33.869Z,19.59
2023-05-22T19:35:00.445Z,19.62
2023-05-22T19:37:26.924Z,19.66
2023-05-22T19:39:54.268Z,19.76
2023-05-22T19:42:20.790Z,19.88
2023-05-22T19:44:47.304Z,19.39
2023-05-22T19:47:13.921Z,19.85
2023-05-22T19:49:40.468Z,19.92
2023-05-22T19:52:06.910Z,19.93
2023-05-22T19:54:35.637Z,19.78
2023-05-22T19:57:03.013Z,19.65
2023-05-22T19:59:29.487Z,19.95
2023-05-22T20:01:56.163Z,19.92
2023-05-22T20:04:23.108Z,19.68
2023-05-22T20:06:49.593Z,19.40
2023-05-22T20:09:16.769Z,19.13
2023-05-22T20:11:43.273Z,19.01
2023-05-22T20:14:11.660Z,18.95
2023-05-22T20:16:38.304Z,18.86
2023-05-22T20:19:04.841Z,18.91
2023-05-22T20:21:32.003Z,18.91
2023-05-22T20:23:58.552Z,18.46
2023-05-22T20:26:25.056Z,18.32
2023-05-22T20:28:51.993Z,18.45
2023-05-22T20:31:18.619Z,18.40
2023-05-22T20:33:45.358Z,18.34
2023-05-22T20:36:14.836Z,18.40
2023-05-22T20:38:42.596Z,17.84
2023-05-22T20:41:10.006Z,17.85
2023-05-22T20:43:36.598Z,18.00
2023-05-22T20:46:03.213Z,17.96
2023-05-22T20:48:29.791Z,17.73
2023-05-22T20:50:56.324Z,17.68
2023-05-22T20:53:22.861Z,17.43
2023-05-22T20:55:49.335Z,17.69
2023-05-22T20:58:16.500Z,17.82
2023-05-22T21:00:43.128Z,17.69
2023-05-22T21:03:09.744Z,17.78
2023-05-22T21:05:36.647Z,17.76
2023-05-22T21:08:03.193Z,17.86
2023-05-22T21:10:29.690Z,17.91
2023-05-22T21:12:56.158Z,17.93
2023-05-22T21:15:22.663Z,17.94
2023-05-22T21:17:50.419Z,17.84
2023-05-22T21:20:17.089Z,17.52
2023-05-22T21:22:43.578Z,17.54
2023-05-22T21:25:10.088Z,17.58
2023-05-22T21:27:37.587Z,17.62
2023-05-22T21:30:04.481Z,17.61
2023-05-22T21:32:31.013Z,17.56
2023-05-22T21:34:57.548Z,17.61
2023-05-22T21:37:24.275Z,17.61
2023-05-22T21:39:50.727Z,17.66
2023-05-22T21:42:17.645Z,17.62
2023-05-22T21:44:44.203Z,17.60
2023-05-22T21:47:10.926Z,17.51
2023-05-22T21:49:39.568Z,17.70
2023-05-22T21:52:06.477Z,17.71
2023-05-22T21:54:32.932Z,17.68
2023-05-22T21:56:59.535Z,17.72
2023-05-22T21:59:26.153Z,17.68
2023-05-22T22:01:52.701Z,17.76
2023-05-22T22:04:19.225Z,17.68
2023-05-22T22:06:45.686Z,17.59
2023-05-22T22:09:12.273Z,17.57
2023-05-22T22:11:38.822Z,17.53
2023-05-22T22:14:05.466Z,17.33
2023-05-22T22:16:35.822Z,17.21
2023-05-22T22:19:03.293Z,17.35
2023-05-22T22:21:30.281Z,17.22
2023-05-22T22:23:56.744Z,17.27
2023-05-22T22:26:23.272Z,17.07
2023-05-22T22:28:49.776Z,16.96
2023-05-22T22:31:16.976Z,17.15
2023-05-22T22:33:43.500Z,17.13
2023-05-22T22:36:10.025Z,17.13
2023-05-22T22:38:36.836Z,17.11
2023-05-22T22:41:04.774Z,16.82
2023-05-22T22:43:31.389Z,16.72
2023-05-22T22:45:57.900Z,16.71
2023-05-22T22:48:24.509Z,16.79
2023-05-22T22:50:52.333Z,16.40
2023-05-22T22:53:19.194Z,16.63
2023-05-22T22:55:47.271Z,16.86
2023-05-22T22:58:13.959Z,16.79
2023-05-22T23:00:40.413Z,16.78
2023-05-22T23:03:07.046Z,16.82
2023-05-22T23:05:33.596Z,16.84
2023-05-22T23:08:01.918Z,16.87
2023-05-22T23:10:28.933Z,16.88
2023-05-22T23:12:55.872Z,16.93
2023-05-22T23:15:22.928Z,16.83
2023-05-22T23:17:51.706Z,16.29
2023-05-22T23:20:18.607Z,16.17
2023-05-22T23:22:45.239Z,16.30
2023-05-22T23:25:11.850Z,16.26
2023-05-22T23:27:39.139Z,16.08
2023-05-22T23:30:07.885Z,16.20
2023-05-22T23:32:34.441Z,16.26
2023-05-22T23:35:00.887Z,16.40
2023-05-22T23:37:27.328Z,16.28
2023-05-22T23:39:54.365Z,16.11
2023-05-22T23:42:20.862Z,16.16
2023-05-22T23:44:47.412Z,16.09
2023-05-22T23:47:13.995Z,15.29
2023-05-22T23:49:40.404Z,15.63
2023-05-22T23:52:08.001Z,15.61
2023-05-22T23:54:34.431Z,15.76
2023-05-22T23:57:01.138Z,15.86
2023-05-22T23:59:27.619Z,15.87
